EFHK/HEL METAR and TAF weather

Enter ICAO airport designator
Station Type Date Time Source
EFHK METAR 2020/02/19 11:20 UTC NOAA

EFHK 191120Z 24013KT 9999 BKN024 05/00 Q0997 NOSIG


Station Type Date Time Source
EFHK Decoded METAR 2020/02/19 11:20 UTC NOAA

Helsinki-Vantaa, Finland (EFHK) 60-19N 024-58E 56M
Feb 19, 2020 - 06:20 AM EST / 2020.02.19 1120 UTC
Wind: from the WSW (240 degrees) at 15 MPH (13 KT):0
Visibility: greater than 7 mile(s):0
Sky conditions: mostly cloudy
Temperature: 41 F (5 C)
Dew Point: 32 F (0 C)
Relative Humidity: 70%
Pressure (altimeter): 29.44 in. Hg (0997 hPa)
ob: EFHK 191120Z 24013KT 9999 BKN024 05/00 Q0997 NOSIG
cycle: 11

Station Type Date Time Source
EFHK TAF 2020/02/19 09:42 UTC NOAA

TAF TAF EFHK 190826Z 1909/2009 22011KT 9999 FEW015 BKN020 PROB40
TEMPO 1912/1914 FEW050CB
BECMG 1923/2001 30006KT PROB30
TEMPO 2002/2005 BKN010

Example: see airport list